sensor_id;sensor_type;location;lat;lon;timestamp;P1;durP1;ratioP1;P2;durP2;ratioP2
43700;SDS011;58809;47.984;7.964;2022-08-05T19:05:19;5.75;;;4.90;;
43700;SDS011;58809;47.984;7.964;2022-08-05T19:08:43;5.40;;;4.55;;
43700;SDS011;58809;47.984;7.964;2022-08-05T19:11:48;4.65;;;4.20;;
43700;SDS011;58809;47.984;7.964;2022-08-05T19:15:01;6.50;;;4.32;;
43700;SDS011;58809;47.984;7.964;2022-08-05T19:18:03;6.63;;;4.55;;
43700;SDS011;58809;47.984;7.964;2022-08-05T19:21:10;4.85;;;4.28;;
43700;SDS011;58809;47.984;7.964;2022-08-05T19:24:12;5.20;;;4.55;;
43700;SDS011;58809;47.984;7.964;2022-08-05T19:27:13;6.45;;;4.65;;
43700;SDS011;58809;47.984;7.964;2022-08-05T19:30:15;5.25;;;4.75;;
43700;SDS011;58809;47.984;7.964;2022-08-05T19:33:20;5.38;;;4.53;;
43700;SDS011;58809;47.984;7.964;2022-08-05T19:36:36;5.60;;;4.50;;
43700;SDS011;58809;47.984;7.964;2022-08-05T19:39:42;5.15;;;4.55;;
43700;SDS011;58809;47.984;7.964;2022-08-05T19:42:51;6.82;;;4.50;;
43700;SDS011;58809;47.984;7.964;2022-08-05T19:46:06;6.35;;;4.85;;
43700;SDS011;58809;47.984;7.964;2022-08-05T19:49:27;6.20;;;4.43;;
43700;SDS011;58809;47.984;7.964;2022-08-05T19:52:29;5.47;;;4.70;;
43700;SDS011;58809;47.984;7.964;2022-08-05T19:55:32;5.45;;;4.40;;
43700;SDS011;58809;47.984;7.964;2022-08-05T19:58:54;5.05;;;4.55;;
43700;SDS011;58809;47.984;7.964;2022-08-05T20:01:57;5.47;;;4.50;;
43700;SDS011;58809;47.984;7.964;2022-08-05T20:05:03;6.13;;;4.78;;
43700;SDS011;58809;47.984;7.964;2022-08-05T20:08:09;6.18;;;4.90;;
43700;SDS011;58809;47.984;7.964;2022-08-05T20:11:11;5.85;;;5.25;;
43700;SDS011;58809;47.984;7.964;2022-08-05T20:14:18;5.28;;;4.78;;
43700;SDS011;58809;47.984;7.964;2022-08-05T20:17:27;7.22;;;4.88;;
43700;SDS011;58809;47.984;7.964;2022-08-05T20:20:36;6.03;;;4.60;;
43700;SDS011;58809;47.984;7.964;2022-08-05T20:23:38;5.50;;;5.00;;
43700;SDS011;58809;47.984;7.964;2022-08-05T20:26:51;5.03;;;4.53;;
43700;SDS011;58809;47.984;7.964;2022-08-05T20:29:53;5.22;;;4.70;;
43700;SDS011;58809;47.984;7.964;2022-08-05T20:32:59;5.78;;;4.70;;
43700;SDS011;58809;47.984;7.964;2022-08-05T20:36:00;5.32;;;4.60;;
43700;SDS011;58809;47.984;7.964;2022-08-05T20:39:02;5.25;;;4.18;;
43700;SDS011;58809;47.984;7.964;2022-08-05T20:42:06;5.20;;;4.70;;
43700;SDS011;58809;47.984;7.964;2022-08-05T20:45:12;6.90;;;5.20;;
43700;SDS011;58809;47.984;7.964;2022-08-05T20:48:13;5.43;;;4.93;;
43700;SDS011;58809;47.984;7.964;2022-08-05T20:51:16;5.65;;;4.50;;
43700;SDS011;58809;47.984;7.964;2022-08-05T20:54:18;5.57;;;4.65;;
43700;SDS011;58809;47.984;7.964;2022-08-05T20:57:22;5.40;;;4.55;;
43700;SDS011;58809;47.984;7.964;2022-08-05T21:00:44;5.93;;;4.43;;
43700;SDS011;58809;47.984;7.964;2022-08-05T21:03:55;7.15;;;4.32;;
43700;SDS011;58809;47.984;7.964;2022-08-05T21:06:58;7.60;;;5.00;;
43700;SDS011;58809;47.984;7.964;2022-08-05T21:10:03;5.38;;;4.60;;
43700;SDS011;58809;47.984;7.964;2022-08-05T21:13:06;4.90;;;4.40;;
43700;SDS011;58809;47.984;7.964;2022-08-05T21:16:15;5.72;;;4.53;;
43700;SDS011;58809;47.984;7.964;2022-08-05T21:19:16;6.63;;;4.68;;
43700;SDS011;58809;47.984;7.964;2022-08-05T21:25:24;4.93;;;4.43;;
43700;SDS011;58809;47.984;7.964;2022-08-05T21:28:34;5.22;;;4.60;;
43700;SDS011;58809;47.984;7.964;2022-08-05T21:31:37;7.50;;;5.50;;
43700;SDS011;58809;47.984;7.964;2022-08-05T21:34:41;6.22;;;5.28;;
43700;SDS011;58809;47.984;7.964;2022-08-05T21:37:46;8.15;;;6.15;;
43700;SDS011;58809;47.984;7.964;2022-08-05T21:40:56;6.13;;;5.50;;
43700;SDS011;58809;47.984;7.964;2022-08-05T21:43:58;6.55;;;5.95;;
43700;SDS011;58809;47.984;7.964;2022-08-05T21:47:04;7.25;;;6.55;;
43700;SDS011;58809;47.984;7.964;2022-08-05T21:50:26;6.50;;;5.50;;
43700;SDS011;58809;47.984;7.964;2022-08-05T21:53:28;7.05;;;5.68;;
43700;SDS011;58809;47.984;7.964;2022-08-05T21:56:29;6.78;;;5.88;;
43700;SDS011;58809;47.984;7.964;2022-08-05T21:59:31;6.97;;;6.03;;
43700;SDS011;58809;47.984;7.964;2022-08-05T22:02:53;7.25;;;6.25;;
43700;SDS011;58809;47.984;7.964;2022-08-05T22:05:55;7.70;;;6.40;;
43700;SDS011;58809;47.984;7.964;2022-08-05T22:08:57;7.13;;;6.30;;
43700;SDS011;58809;47.984;7.964;2022-08-05T22:12:00;8.35;;;5.70;;
43700;SDS011;58809;47.984;7.964;2022-08-05T22:15:11;6.90;;;6.20;;
43700;SDS011;58809;47.984;7.964;2022-08-05T22:18:16;7.32;;;6.18;;
43700;SDS011;58809;47.984;7.964;2022-08-05T22:21:19;6.63;;;5.97;;
43700;SDS011;58809;47.984;7.964;2022-08-05T22:24:22;8.03;;;5.63;;
43700;SDS011;58809;47.984;7.964;2022-08-05T22:27:53;6.90;;;5.93;;
43700;SDS011;58809;47.984;7.964;2022-08-05T22:31:12;6.38;;;5.78;;
43700;SDS011;58809;47.984;7.964;2022-08-05T22:34:15;6.50;;;5.88;;
43700;SDS011;58809;47.984;7.964;2022-08-05T22:37:28;7.43;;;5.67;;
43700;SDS011;58809;47.984;7.964;2022-08-05T22:40:50;6.82;;;5.63;;
43700;SDS011;58809;47.984;7.964;2022-08-05T22:43:55;7.32;;;5.30;;
43700;SDS011;58809;47.984;7.964;2022-08-05T22:50:05;6.55;;;5.45;;
43700;SDS011;58809;47.984;7.964;2022-08-05T22:53:22;6.03;;;5.43;;
43700;SDS011;58809;47.984;7.964;2022-08-05T22:56:35;6.32;;;5.45;;
43700;SDS011;58809;47.984;7.964;2022-08-05T22:59:40;5.53;;;4.97;;
43700;SDS011;58809;47.984;7.964;2022-08-05T23:02:49;5.85;;;5.25;;
43700;SDS011;58809;47.984;7.964;2022-08-05T23:05:52;5.68;;;5.07;;
43700;SDS011;58809;47.984;7.964;2022-08-05T23:08:56;6.35;;;5.00;;
43700;SDS011;58809;47.984;7.964;2022-08-05T23:12:18;7.28;;;5.30;;
43700;SDS011;58809;47.984;7.964;2022-08-05T23:15:25;5.63;;;5.05;;
43700;SDS011;58809;47.984;7.964;2022-08-05T23:18:35;5.45;;;4.82;;
43700;SDS011;58809;47.984;7.964;2022-08-05T23:21:38;5.57;;;4.97;;
43700;SDS011;58809;47.984;7.964;2022-08-05T23:24:48;8.43;;;5.82;;
43700;SDS011;58809;47.984;7.964;2022-08-05T23:27:51;6.43;;;5.10;;
43700;SDS011;58809;47.984;7.964;2022-08-05T23:31:00;6.40;;;5.10;;
43700;SDS011;58809;47.984;7.964;2022-08-05T23:34:17;7.78;;;5.88;;
43700;SDS011;58809;47.984;7.964;2022-08-05T23:37:25;5.93;;;5.32;;
43700;SDS011;58809;47.984;7.964;2022-08-05T23:40:36;7.85;;;5.43;;
43700;SDS011;58809;47.984;7.964;2022-08-05T23:43:38;6.85;;;5.40;;
43700;SDS011;58809;47.984;7.964;2022-08-05T23:47:00;6.00;;;5.40;;
43700;SDS011;58809;47.984;7.964;2022-08-05T23:50:14;6.13;;;5.53;;
43700;SDS011;58809;47.984;7.964;2022-08-05T23:53:20;6.25;;;5.55;;
43700;SDS011;58809;47.984;7.964;2022-08-05T23:56:23;7.60;;;5.43;;
43700;SDS011;58809;47.984;7.964;2022-08-05T23:59:27;6.63;;;5.80;;
